This is the latest recevied weather packets stored in our database for station/object DL9BGG-13. If no packets are shown the sender has not sent any weather packets the latest 1 day(s).
| Time | Temp. | Humidity | Pressure | Rain* | Wind** | Luminosity | Snow |
|---|---|---|---|---|---|---|---|
| 1778006457 | 10° C | 83% | 1056 hPa | 0 mm | 0.89 m/s, 22° | - | - |
| 1778006392 | 10° C | 83% | 1056 hPa | 0 mm | 2.68 m/s, 22° | - | - |
| 1778006325 | 10° C | 83% | 1056 hPa | 0 mm | 1.79 m/s, 22° | - | - |
| 1778006250 | 10° C | 82% | 1056 hPa | 0 mm | 2.24 m/s, 22° | - | - |
| 1778006152 | 10° C | 82% | 1055.9 hPa | 0 mm | 4.92 m/s, 45° | - | - |
| 1778006073 | 10° C | 83% | 1055.9 hPa | 0 mm | 4.02 m/s, 45° | - | - |
| 1778006004 | 10° C | 83% | 1056 hPa | 0 mm | 2.68 m/s, 22° | - | - |
| 1778005930 | 10° C | 83% | 1055.9 hPa | 0 mm | 3.58 m/s, 45° | - | - |
| 1778005863 | 10° C | 83% | 1056 hPa | 0 mm | 1.79 m/s, 22° | - | - |
| 1778005776 | 10° C | 83% | 1056 hPa | 0 mm | 0 m/s | - | - |
| 1778005709 | 10° C | 83% | 1055.9 hPa | 0 mm | 4.02 m/s, 22° | - | - |
| 1778005644 | 10° C | 83% | 1056 hPa | 0 mm | 1.79 m/s, 22° | - | - |
| 1778005575 | 10° C | 83% | 1055.9 hPa | 0 mm | 1.34 m/s, 0° | - | - |
| 1778005501 | 10° C | 83% | 1056 hPa | 0 mm | 2.68 m/s, 0° | - | - |
| 1778005435 | 10° C | 83% | 1056 hPa | 0 mm | 5.81 m/s, 22° | - | - |
| 1778005370 | 10° C | 83% | 1056 hPa | 0 mm | 3.58 m/s, 0° | - | - |
| 1778005303 | 10° C | 83% | 1055.9 hPa | 0 mm | 4.02 m/s, 22° | - | - |
| 1778005236 | 10° C | 83% | 1056 hPa | 0 mm | 2.68 m/s, 45° | - | - |
| 1778005162 | 10° C | 83% | 1056 hPa | 0 mm | 4.02 m/s, 67° | - | - |
| 1778005082 | 10° C | 83% | 1056 hPa | 0 mm | 2.68 m/s, 45° | - | - |
| 1778005014 | 10° C | 83% | 1055.9 hPa | 0 mm | 3.13 m/s, 45° | - | - |
| 1778004939 | 10° C | 83% | 1056 hPa | 0 mm | 6.26 m/s, 67° | - | - |
| 1778004859 | 10° C | 83% | 1055.9 hPa | 0 mm | 1.79 m/s, 67° | - | - |
| 1778004793 | 10° C | 83% | 1055.9 hPa | 0 mm | 5.36 m/s, 45° | - | - |
| 1778004725 | 10° C | 83% | 1055.9 hPa | 0 mm | 1.79 m/s, 0° | - | - |
* Rain latest hour (hover to see other rain measurements)
** Current wind speed in m/s (hover to see current wind gust speed)